CheckWX is a tool to help pilots better visualize weather data.  It is not intended as a substitute for an official pre-flight weather briefing.

08:22:36 UTC

LQMO METAR
Mostar International Airport
Mostar, Bosnia and Herzegovina
Current

23 mins ago

LQMO 270800Z 33014KT 9999 SCT045 BKN085 07/M02 Q1006
Observed
Feb-27 @ 08:00 UTC
Wind
  • 330° at 14 KTS
Visibility
10,000+ meters
Flight Rules
VFR
Cloud Levels
  • Scattered at 4,500' AGL
  • Broken at 8,500' AGL
Temperature
C / 45°F
Dewpoint
-2°C / 28°F
Humidity
53%
Altimeter
29.7" Hg
Pressure
1005.92 hPa
Previous

1 hour ago

LQMO 270700Z 32012KT 300V010 9999 FEW040 SCT050 BKN080 06/M01 Q1004
Observed
Feb-27 @ 07:00 UTC
Wind
  • 320° at 12 KTS
Visibility
10,000+ meters
Flight Rules
VFR
Cloud Levels
  • Few at 4,000' AGL
  • Scattered at 5,000' AGL
  • Broken at 8,000' AGL
Temperature
C / 43°F
Dewpoint
-1°C / 30°F
Humidity
61%
Altimeter
29.65" Hg
Pressure
1003.92 hPa
Previous

2 hours ago

LQMO 270600Z 34014KT 270V040 9999 FEW040 BKN069 05/M00 Q1003
Observed
Feb-27 @ 06:00 UTC
Wind
  • 340° at 14 KTS
Visibility
10,000+ meters
Flight Rules
VFR
Cloud Levels
  • Few at 4,000' AGL
  • Broken at 6,900' AGL
Temperature
C / 41°F
Dewpoint
C / 32°F
Humidity
70%
Altimeter
29.62" Hg
Pressure
1002.92 hPa